createdAt,value
2022-10-01T00:02:08.766Z,65.21
2022-10-01T00:04:37.825Z,61.45
2022-10-01T00:07:09.695Z,56.63
2022-10-01T00:09:37.583Z,55.92
2022-10-01T00:12:05.670Z,57.36
2022-10-01T00:14:34.039Z,58.81
2022-10-01T00:17:01.778Z,60.40
2022-10-01T00:19:30.084Z,61.24
2022-10-01T00:21:57.933Z,65.04
2022-10-01T00:24:25.826Z,65.20
2022-10-01T00:26:54.020Z,61.38
2022-10-01T00:29:22.187Z,57.85
2022-10-01T00:31:50.034Z,57.22
2022-10-01T00:34:17.971Z,59.02
2022-10-01T00:36:45.732Z,60.07
2022-10-01T00:39:14.038Z,61.49
2022-10-01T00:41:42.373Z,65.71
2022-10-01T00:44:33.464Z,65.11
2022-10-01T00:47:29.328Z,61.46
2022-10-01T00:50:23.519Z,56.63
2022-10-01T00:52:55.872Z,56.82
2022-10-01T00:55:27.362Z,58.79
2022-10-01T00:57:55.382Z,59.81
2022-10-01T01:00:23.761Z,61.47
2022-10-01T01:02:51.616Z,65.40
2022-10-01T01:05:20.616Z,65.66
2022-10-01T01:07:50.470Z,62.11
2022-10-01T01:10:28.355Z,59.42
2022-10-01T01:13:08.934Z,56.46
2022-10-01T01:15:55.343Z,57.15
2022-10-01T01:18:44.050Z,58.13
2022-10-01T01:21:29.179Z,59.43
2022-10-01T01:24:15.175Z,59.95
2022-10-01T01:27:06.427Z,61.38
2022-10-01T01:29:40.725Z,66.52
2022-10-01T01:32:15.904Z,65.07
2022-10-01T01:34:49.256Z,60.77
2022-10-01T01:37:20.477Z,56.23
2022-10-01T01:39:51.047Z,56.07
2022-10-01T01:42:31.481Z,57.76
2022-10-01T01:45:01.170Z,59.03
2022-10-01T01:47:30.503Z,60.53
2022-10-01T01:49:59.513Z,64.72
2022-10-01T01:52:30.545Z,64.73
2022-10-01T01:54:58.355Z,60.97
2022-10-01T01:57:26.838Z,57.10
2022-10-01T01:59:55.213Z,57.00
2022-10-01T02:02:27.132Z,58.66
2022-10-01T02:04:58.112Z,59.95
2022-10-01T02:07:33.651Z,61.39
2022-10-01T02:10:25.216Z,65.97
2022-10-01T02:13:17.845Z,64.72
2022-10-01T02:16:11.093Z,59.76
2022-10-01T02:18:58.191Z,55.13
2022-10-01T02:21:38.980Z,55.89
2022-10-01T02:24:15.136Z,58.96
2022-10-01T02:26:44.188Z,60.01
2022-10-01T02:29:16.840Z,61.24
2022-10-01T02:31:47.136Z,66.20
2022-10-01T02:34:19.412Z,64.82
2022-10-01T02:36:50.362Z,60.56
2022-10-01T02:39:19.203Z,56.15
2022-10-01T02:41:50.526Z,55.55
2022-10-01T02:44:22.900Z,57.25
2022-10-01T02:47:11.331Z,58.71
2022-10-01T02:49:41.372Z,60.18
2022-10-01T02:52:22.300Z,61.56
2022-10-01T02:55:04.710Z,66.93
2022-10-01T02:57:33.032Z,64.54
2022-10-01T03:00:04.635Z,60.58
2022-10-01T03:02:33.285Z,56.30
2022-10-01T03:05:02.141Z,56.70
2022-10-01T03:07:31.850Z,58.66
2022-10-01T03:09:59.990Z,60.58
2022-10-01T03:12:28.024Z,65.03
2022-10-01T03:14:55.838Z,64.51
2022-10-01T03:17:27.301Z,59.91
2022-10-01T03:19:55.948Z,55.74
2022-10-01T03:22:24.298Z,56.33
2022-10-01T03:24:54.616Z,58.31
2022-10-01T03:27:22.662Z,59.40
2022-10-01T03:29:50.667Z,60.65
2022-10-01T03:32:19.444Z,64.28
2022-10-01T03:34:47.881Z,65.25
2022-10-01T03:37:15.647Z,62.00
2022-10-01T03:39:43.669Z,57.63
2022-10-01T03:42:11.501Z,56.84
2022-10-01T03:44:40.773Z,58.69
2022-10-01T03:47:10.052Z,60.29
2022-10-01T03:49:37.986Z,61.64
2022-10-01T03:52:06.694Z,65.95
2022-10-01T03:54:34.562Z,66.19
2022-10-01T03:57:03.142Z,63.53
2022-10-01T03:59:30.960Z,60.99
2022-10-01T04:01:58.891Z,57.89
2022-10-01T04:04:29.128Z,57.64
2022-10-01T04:06:57.102Z,58.47
2022-10-01T04:09:26.056Z,60.99
2022-10-01T04:11:54.005Z,65.18
2022-10-01T04:14:22.693Z,63.93
2022-10-01T04:16:52.634Z,61.40
2022-10-01T04:19:20.645Z,59.73
2022-10-01T04:21:49.518Z,57.19
2022-10-01T04:24:17.515Z,57.10
2022-10-01T04:26:45.750Z,58.61
2022-10-01T04:29:14.546Z,59.64
2022-10-01T04:31:42.526Z,61.43
2022-10-01T04:34:10.975Z,65.05
2022-10-01T04:36:38.723Z,64.30
2022-10-01T04:39:07.566Z,60.80
2022-10-01T04:41:36.315Z,57.42
2022-10-01T04:44:04.561Z,56.97
2022-10-01T04:46:33.017Z,57.89
2022-10-01T04:49:01.157Z,59.84
2022-10-01T04:51:29.162Z,61.03
2022-10-01T04:53:58.376Z,61.83
2022-10-01T04:56:27.044Z,66.02
2022-10-01T04:58:55.310Z,64.96
2022-10-01T05:01:23.217Z,61.14
2022-10-01T05:03:51.340Z,57.66
2022-10-01T05:06:19.572Z,56.90
2022-10-01T05:08:49.595Z,58.41
2022-10-01T05:11:18.377Z,59.99
2022-10-01T05:13:46.281Z,61.58
2022-10-01T05:16:14.336Z,66.19
2022-10-01T05:18:44.321Z,64.97
2022-10-01T05:21:12.690Z,61.19
2022-10-01T05:23:40.496Z,57.30
2022-10-01T05:26:09.526Z,56.72
2022-10-01T05:28:37.612Z,58.54
2022-10-01T05:31:06.202Z,59.44
2022-10-01T05:33:34.216Z,61.33
2022-10-01T05:36:05.389Z,65.09
2022-10-01T05:38:37.322Z,64.14
2022-10-01T05:41:05.989Z,60.54
2022-10-01T05:43:36.719Z,56.46
2022-10-01T05:46:05.869Z,56.28
2022-10-01T05:48:37.204Z,57.33
2022-10-01T05:51:06.789Z,59.78
2022-10-01T05:53:37.668Z,60.85
2022-10-01T05:56:06.631Z,65.20
2022-10-01T05:58:35.151Z,64.48
2022-10-01T06:01:04.138Z,60.04
2022-10-01T06:03:32.312Z,56.21
2022-10-01T06:06:00.794Z,56.51
2022-10-01T06:08:28.822Z,57.95
2022-10-01T06:11:02.599Z,58.92
2022-10-01T06:13:33.501Z,60.23
2022-10-01T06:16:01.605Z,65.29
2022-10-01T06:21:11.977Z,59.79
2022-10-01T06:23:41.166Z,55.91
2022-10-01T06:26:09.827Z,56.51
2022-10-01T06:28:37.606Z,58.67
2022-10-01T06:31:05.864Z,59.89
2022-10-01T06:33:34.893Z,61.71
2022-10-01T06:36:08.381Z,66.16
2022-10-01T06:38:40.272Z,63.59
2022-10-01T06:41:09.587Z,59.62
2022-10-01T06:43:40.409Z,55.88
2022-10-01T06:46:13.233Z,56.06
2022-10-01T06:48:42.841Z,57.69
2022-10-01T06:51:10.693Z,59.48
2022-10-01T06:53:38.852Z,60.88
2022-10-01T06:56:07.955Z,65.42
2022-10-01T06:58:43.992Z,63.88
2022-10-01T07:01:17.776Z,59.75
2022-10-01T07:03:49.131Z,55.83
2022-10-01T07:06:17.353Z,56.14
2022-10-01T07:08:49.306Z,57.43
2022-10-01T07:11:19.180Z,59.30
2022-10-01T07:13:50.034Z,60.58
2022-10-01T07:16:22.689Z,61.53
2022-10-01T07:18:50.544Z,65.52
2022-10-01T07:21:18.372Z,64.35
2022-10-01T07:23:51.827Z,60.21
2022-10-01T07:26:19.646Z,54.91
2022-10-01T07:28:49.896Z,55.00
2022-10-01T07:31:18.572Z,56.68
2022-10-01T07:33:47.309Z,57.83
2022-10-01T07:36:15.418Z,59.00
2022-10-01T07:38:51.912Z,59.55
2022-10-01T07:41:20.074Z,60.97
2022-10-01T07:43:49.834Z,61.12
2022-10-01T07:46:19.324Z,61.14
2022-10-01T07:48:49.363Z,63.67
2022-10-01T07:51:19.228Z,62.92
2022-10-01T07:53:48.142Z,58.14
2022-10-01T07:56:18.375Z,55.14
2022-10-01T07:58:46.336Z,55.93
2022-10-01T08:01:18.088Z,56.94
2022-10-01T08:03:49.137Z,57.45
2022-10-01T08:06:24.692Z,58.08
2022-10-01T08:08:58.267Z,59.06
2022-10-01T08:11:28.941Z,59.28
2022-10-01T08:14:06.115Z,59.34
2022-10-01T08:16:45.294Z,59.53
2022-10-01T08:19:15.059Z,59.70
2022-10-01T08:21:47.142Z,60.44
2022-10-01T08:24:15.064Z,61.06
2022-10-01T08:26:42.868Z,61.20
2022-10-01T08:29:14.852Z,61.47
2022-10-01T08:31:46.231Z,61.34
2022-10-01T08:34:15.013Z,64.43
2022-10-01T08:36:43.367Z,63.16
2022-10-01T08:39:14.859Z,56.88
2022-10-01T08:41:57.724Z,54.82
2022-10-01T08:44:32.296Z,55.45
2022-10-01T08:47:08.840Z,55.64
2022-10-01T08:49:44.321Z,56.23
2022-10-01T08:52:34.491Z,57.04
2022-10-01T08:55:07.524Z,57.38
2022-10-01T08:57:47.730Z,57.51
2022-10-01T09:00:18.451Z,58.08
2022-10-01T09:02:47.217Z,58.31
2022-10-01T09:05:48.283Z,58.72
2022-10-01T09:08:43.946Z,58.69
2022-10-01T09:11:30.668Z,58.65
2022-10-01T09:14:31.301Z,59.25
2022-10-01T09:17:44.634Z,60.15
2022-10-01T09:20:31.556Z,60.04
2022-10-01T09:23:26.056Z,60.16
2022-10-01T09:26:00.209Z,60.44
2022-10-01T09:28:38.842Z,60.84
2022-10-01T09:31:58.035Z,61.22
2022-10-01T09:34:43.191Z,61.27
2022-10-01T09:38:10.568Z,61.70
2022-10-01T09:41:04.960Z,66.85
2022-10-01T09:43:40.891Z,61.48
2022-10-01T09:46:20.227Z,55.94
2022-10-01T09:49:14.135Z,53.75
2022-10-01T09:52:28.898Z,53.35
2022-10-01T09:55:01.327Z,52.26
2022-10-01T09:58:06.699Z,52.05
2022-10-01T10:00:43.809Z,50.87
2022-10-01T10:03:31.002Z,50.79
2022-10-01T10:06:27.401Z,50.92
2022-10-01T10:08:58.521Z,51.36
2022-10-01T10:11:50.898Z,52.45
2022-10-01T10:14:30.428Z,51.16
2022-10-01T10:17:09.902Z,52.30
2022-10-01T10:19:48.576Z,52.21
2022-10-01T10:22:28.403Z,52.31
2022-10-01T10:25:08.589Z,53.27
2022-10-01T10:28:02.616Z,53.25
2022-10-01T10:30:31.701Z,53.20
2022-10-01T10:33:21.544Z,53.82
2022-10-01T10:36:06.040Z,53.91
2022-10-01T10:38:34.830Z,53.41
2022-10-01T10:41:03.968Z,52.77
2022-10-01T10:44:25.189Z,53.27
2022-10-01T10:46:45.307Z,53.46
2022-10-01T10:50:06.360Z,53.60
2022-10-01T10:52:57.227Z,53.32
2022-10-01T10:55:30.705Z,53.73
2022-10-01T10:58:15.067Z,54.32
2022-10-01T11:00:50.425Z,54.35
2022-10-01T11:03:26.686Z,54.77
2022-10-01T11:06:12.689Z,54.72
2022-10-01T11:09:26.440Z,55.27
2022-10-01T11:12:26.861Z,55.39
2022-10-01T11:15:05.963Z,55.71
2022-10-01T11:17:55.678Z,54.65
2022-10-01T11:23:39.740Z,53.75
2022-10-01T11:26:20.113Z,53.39
2022-10-01T11:29:16.401Z,52.75
2022-10-01T11:32:21.780Z,52.89
2022-10-01T11:35:19.969Z,53.03
2022-10-01T11:38:18.413Z,52.73
2022-10-01T11:41:11.657Z,52.74
2022-10-01T11:44:19.478Z,52.90
2022-10-01T11:47:09.298Z,53.08
2022-10-01T12:00:58.387Z,52.26
2022-10-01T12:03:33.215Z,51.21
2022-10-01T12:06:02.044Z,50.85
2022-10-01T12:08:32.770Z,50.08
2022-10-01T12:11:13.369Z,50.25
2022-10-01T12:13:44.747Z,50.74
2022-10-01T12:16:58.829Z,50.58
2022-10-01T12:19:32.710Z,51.26
2022-10-01T12:22:20.240Z,51.17
2022-10-01T12:24:50.403Z,51.71
2022-10-01T12:27:37.100Z,51.97
2022-10-01T12:30:12.401Z,52.14
2022-10-01T12:32:49.709Z,52.34
2022-10-01T12:35:57.562Z,52.72
2022-10-01T12:38:35.994Z,52.92
2022-10-01T12:41:27.247Z,53.33
2022-10-01T12:43:58.756Z,52.90
2022-10-01T12:46:55.003Z,53.23
2022-10-01T12:49:30.003Z,53.50
2022-10-01T12:52:08.286Z,53.73
2022-10-01T12:55:01.369Z,53.73
2022-10-01T12:58:12.585Z,53.78
2022-10-01T13:00:48.249Z,54.22
2022-10-01T13:03:34.738Z,54.43
2022-10-01T13:06:33.625Z,54.58
2022-10-01T13:09:01.542Z,54.67
2022-10-01T13:11:41.690Z,54.78
2022-10-01T13:14:16.873Z,54.88
2022-10-01T13:16:59.134Z,54.92
2022-10-01T13:19:35.655Z,54.81
2022-10-01T13:22:14.907Z,54.67
2022-10-01T13:24:48.909Z,54.70
2022-10-01T13:27:23.099Z,54.62
2022-10-01T13:30:01.098Z,54.43
2022-10-01T13:32:35.587Z,54.81
2022-10-01T13:35:35.802Z,54.56
2022-10-01T13:38:14.833Z,55.02
2022-10-01T13:40:43.073Z,55.11
2022-10-01T13:43:18.761Z,54.45
2022-10-01T13:45:49.208Z,54.85
2022-10-01T13:48:20.822Z,55.00
2022-10-01T13:50:55.926Z,55.22
2022-10-01T13:53:25.879Z,55.21
2022-10-01T13:55:54.243Z,55.66
2022-10-01T13:58:29.671Z,55.72
2022-10-01T14:01:00.069Z,55.94
2022-10-01T14:03:32.356Z,55.94
2022-10-01T14:06:02.477Z,56.10
2022-10-01T14:08:44.354Z,56.49
2022-10-01T14:11:46.119Z,56.58
2022-10-01T14:14:57.090Z,56.67
2022-10-01T14:17:30.570Z,57.00
2022-10-01T14:20:00.765Z,57.50
2022-10-01T14:23:05.970Z,57.97
2022-10-01T14:25:55.534Z,58.39
2022-10-01T14:28:29.173Z,59.19
2022-10-01T14:31:06.072Z,61.31
2022-10-01T14:33:56.598Z,63.15
2022-10-01T14:36:32.513Z,62.24
2022-10-01T14:39:21.267Z,59.40
2022-10-01T14:41:51.533Z,60.08
2022-10-01T14:44:22.037Z,62.74
2022-10-01T14:46:55.096Z,64.41
2022-10-01T14:49:31.070Z,61.37
2022-10-01T14:52:03.418Z,57.42
2022-10-01T14:54:42.115Z,58.74
2022-10-01T14:57:18.649Z,59.91
2022-10-01T14:59:48.294Z,61.62
2022-10-01T15:02:22.023Z,64.53
2022-10-01T15:04:51.831Z,62.70
2022-10-01T15:07:19.943Z,60.89
2022-10-01T15:09:48.941Z,57.45
2022-10-01T15:12:19.100Z,58.58
2022-10-01T15:14:47.646Z,59.63
2022-10-01T15:17:22.479Z,61.53
2022-10-01T15:19:52.175Z,63.10
2022-10-01T15:22:23.061Z,61.06
2022-10-01T15:24:51.913Z,58.58
2022-10-01T15:27:20.869Z,58.35
2022-10-01T15:29:56.260Z,59.33
2022-10-01T15:32:26.977Z,60.37
2022-10-01T15:34:58.148Z,62.00
2022-10-01T15:37:31.309Z,65.63
2022-10-01T15:40:00.799Z,61.39
2022-10-01T15:42:33.859Z,57.88
2022-10-01T15:45:08.087Z,57.72
2022-10-01T15:47:37.683Z,58.69
2022-10-01T15:50:08.530Z,59.47
2022-10-01T15:53:25.700Z,60.63
2022-10-01T15:55:57.035Z,61.39
2022-10-01T15:58:30.349Z,65.85
2022-10-01T16:01:01.834Z,65.53
2022-10-01T16:03:33.744Z,60.71
2022-10-01T16:06:03.878Z,56.03
2022-10-01T16:08:36.072Z,55.65
2022-10-01T16:11:13.463Z,56.83
2022-10-01T16:13:44.955Z,58.09
2022-10-01T16:16:12.990Z,59.89
2022-10-01T16:18:41.744Z,60.50
2022-10-01T16:21:10.975Z,63.13
2022-10-01T16:23:43.962Z,66.65
2022-10-01T16:26:29.981Z,62.24
2022-10-01T16:29:03.842Z,57.27
2022-10-01T16:31:32.374Z,55.91
2022-10-01T16:34:00.292Z,56.98
2022-10-01T16:36:28.416Z,58.56
2022-10-01T16:38:57.484Z,59.57
2022-10-01T16:41:26.717Z,60.31
2022-10-01T16:43:56.423Z,61.08
2022-10-01T16:46:24.666Z,65.96
2022-10-01T16:48:52.694Z,66.88
2022-10-01T16:51:22.045Z,62.05
2022-10-01T16:53:50.212Z,57.67
2022-10-01T16:56:18.193Z,56.33
2022-10-01T16:58:46.211Z,57.35
2022-10-01T17:01:15.014Z,58.57
2022-10-01T17:03:43.215Z,59.76
2022-10-01T17:06:11.279Z,60.55
2022-10-01T17:08:39.070Z,61.37
2022-10-01T17:11:12.540Z,65.38
2022-10-01T17:13:40.931Z,64.76
2022-10-01T17:16:08.936Z,60.92
2022-10-01T17:18:36.876Z,56.92
2022-10-01T17:21:05.812Z,56.04
2022-10-01T17:23:35.450Z,57.21
2022-10-01T17:26:07.715Z,58.13
2022-10-01T17:28:35.617Z,59.58
2022-10-01T17:31:07.090Z,60.63
2022-10-01T17:33:35.173Z,64.69
2022-10-01T17:36:07.173Z,63.62
2022-10-01T17:38:35.511Z,61.79
2022-10-01T17:41:04.388Z,57.53
2022-10-01T17:43:36.914Z,57.17
2022-10-01T17:46:05.163Z,59.00
2022-10-01T17:48:33.661Z,59.46
2022-10-01T17:51:06.849Z,60.70
2022-10-01T17:53:42.152Z,64.36
2022-10-01T17:56:15.203Z,64.47
2022-10-01T17:58:45.598Z,61.01
2022-10-01T18:01:20.193Z,57.26
2022-10-01T18:03:55.738Z,56.71
2022-10-01T18:06:24.913Z,57.79
2022-10-01T18:08:56.690Z,58.64
2022-10-01T18:11:28.045Z,60.26
2022-10-01T18:13:56.209Z,61.37
2022-10-01T18:16:25.040Z,65.40
2022-10-01T18:21:45.973Z,60.53
2022-10-01T18:24:15.134Z,56.51
2022-10-01T18:26:43.541Z,56.88
2022-10-01T18:29:24.783Z,58.33
2022-10-01T18:31:56.087Z,59.31
2022-10-01T18:34:33.193Z,60.73
2022-10-01T18:37:06.447Z,64.93
2022-10-01T18:39:46.751Z,64.44
2022-10-01T18:42:24.088Z,62.16
2022-10-01T18:45:00.216Z,58.13
2022-10-01T18:47:36.422Z,57.80
2022-10-01T18:50:24.270Z,59.05
2022-10-01T18:53:09.387Z,59.42
2022-10-01T18:55:58.361Z,61.40
2022-10-01T18:58:43.219Z,66.07
2022-10-01T19:01:20.125Z,63.53
2022-10-01T19:03:54.088Z,61.41
2022-10-01T19:06:27.985Z,57.64
2022-10-01T19:08:58.682Z,56.62
2022-10-01T19:12:02.087Z,57.87
2022-10-01T19:15:06.892Z,58.67
2022-10-01T19:18:00.616Z,60.98
2022-10-01T19:20:46.154Z,64.17
2022-10-01T19:23:26.882Z,65.39
2022-10-01T19:26:01.833Z,61.79
2022-10-01T19:29:11.371Z,57.69
2022-10-01T19:31:53.076Z,56.17
2022-10-01T19:34:35.864Z,57.89
2022-10-01T19:37:27.706Z,58.98
2022-10-01T19:40:05.652Z,60.67
2022-10-01T19:42:37.393Z,65.29
2022-10-01T19:45:15.709Z,66.06
2022-10-01T19:48:09.962Z,61.63
2022-10-01T19:50:41.634Z,57.19
2022-10-01T19:53:26.317Z,56.96
2022-10-01T19:55:54.800Z,58.43
2022-10-01T19:58:23.954Z,59.91
2022-10-01T20:00:56.116Z,63.69
2022-10-01T20:03:30.196Z,65.62
2022-10-01T20:06:07.520Z,61.65
2022-10-01T20:08:38.831Z,57.36
2022-10-01T20:11:10.356Z,56.40
2022-10-01T20:14:00.369Z,57.76
2022-10-01T20:16:36.265Z,59.20
2022-10-01T20:19:16.840Z,60.45
2022-10-01T20:22:26.968Z,64.98
2022-10-01T20:25:07.023Z,63.74
2022-10-01T20:27:38.096Z,57.86
2022-10-01T20:30:08.893Z,56.59
2022-10-01T20:32:42.421Z,57.41
2022-10-01T20:35:35.952Z,58.95
2022-10-01T20:38:30.503Z,60.24
2022-10-01T20:41:00.671Z,61.01
2022-10-01T20:43:33.411Z,65.30
2022-10-01T20:46:08.920Z,64.93
2022-10-01T20:48:39.536Z,60.01
2022-10-01T20:51:16.168Z,55.44
2022-10-01T20:53:53.595Z,55.64
2022-10-01T20:56:26.140Z,57.20
2022-10-01T20:59:04.275Z,58.12
2022-10-01T21:01:36.439Z,59.22
2022-10-01T21:04:23.458Z,59.99
2022-10-01T21:06:55.100Z,60.35
2022-10-01T21:09:41.754Z,64.78
2022-10-01T21:12:37.338Z,64.84
2022-10-01T21:15:07.757Z,59.27
2022-10-01T21:17:43.263Z,54.86
2022-10-01T21:20:37.359Z,55.81
2022-10-01T21:23:36.263Z,57.21
2022-10-01T21:26:13.435Z,58.12
2022-10-01T21:28:49.963Z,60.29
2022-10-01T21:31:39.712Z,64.98
2022-10-01T21:34:24.695Z,64.53
2022-10-01T21:36:55.572Z,61.23
2022-10-01T21:39:42.208Z,58.18
2022-10-01T21:42:10.233Z,56.49
2022-10-01T21:44:40.801Z,58.50
2022-10-01T21:47:24.019Z,60.16
2022-10-01T21:50:35.629Z,63.95
2022-10-01T21:53:07.126Z,65.33
2022-10-01T21:55:41.423Z,61.89
2022-10-01T21:58:11.920Z,57.88
2022-10-01T22:00:39.888Z,57.41
2022-10-01T22:03:10.729Z,59.12
2022-10-01T22:06:03.732Z,60.53
2022-10-01T22:08:48.828Z,63.50
2022-10-01T22:11:38.560Z,61.77
2022-10-01T22:14:25.926Z,59.58
2022-10-01T22:16:57.205Z,57.70
2022-10-01T22:19:33.391Z,60.40
2022-10-01T22:22:10.215Z,61.61
2022-10-01T22:24:43.985Z,65.27
2022-10-01T22:27:20.426Z,62.47
2022-10-01T22:30:09.498Z,59.63
2022-10-01T22:33:11.227Z,59.31
2022-10-01T22:36:12.286Z,61.54
2022-10-01T22:38:54.290Z,63.77
2022-10-01T22:41:31.918Z,61.67
2022-10-01T22:44:02.825Z,58.61
2022-10-01T22:46:49.249Z,58.96
2022-10-01T22:49:59.310Z,62.60
2022-10-01T22:52:39.561Z,62.26
2022-10-01T22:55:08.298Z,60.40
2022-10-01T22:58:09.193Z,58.36
2022-10-01T23:01:47.875Z,60.50
2022-10-01T23:04:36.424Z,63.89
2022-10-01T23:07:07.469Z,62.03
2022-10-01T23:10:12.333Z,60.19
2022-10-01T23:12:46.879Z,58.51
2022-10-01T23:15:24.757Z,60.97
2022-10-01T23:18:29.868Z,63.21
2022-10-01T23:21:23.010Z,61.83
2022-10-01T23:24:14.090Z,58.94
2022-10-01T23:27:16.388Z,59.94
2022-10-01T23:30:14.890Z,62.10
2022-10-01T23:33:14.282Z,63.57
2022-10-01T23:36:10.797Z,62.01
2022-10-01T23:38:52.369Z,58.68
2022-10-01T23:41:32.825Z,58.72
2022-10-01T23:44:48.781Z,60.82
2022-10-01T23:47:22.836Z,64.40
2022-10-01T23:49:57.001Z,62.11
2022-10-01T23:52:40.783Z,59.66
2022-10-01T23:55:41.985Z,59.22
2022-10-01T23:58:13.485Z,61.88
